createdAt,value
2022-11-12T00:01:28.627Z,9.77
2022-11-12T00:04:14.143Z,12.82
2022-11-12T00:06:59.578Z,12.85
2022-11-12T00:09:44.898Z,12.27
2022-11-12T00:12:30.460Z,7.68
2022-11-12T00:15:16.037Z,10.48
2022-11-12T00:18:01.772Z,6.32
2022-11-12T00:20:47.269Z,10.50
2022-11-12T00:23:32.622Z,16.42
2022-11-12T00:26:17.988Z,8.52
2022-11-12T00:29:03.689Z,15.77
2022-11-12T00:31:49.005Z,12.20
2022-11-12T00:34:34.633Z,17.83
2022-11-12T00:37:20.888Z,10.20
2022-11-12T00:40:06.636Z,17.67
2022-11-12T00:42:52.672Z,8.15
2022-11-12T00:45:38.240Z,11.70
2022-11-12T00:48:23.895Z,11.48
2022-11-12T00:51:09.413Z,12.73
2022-11-12T00:53:54.743Z,10.10
2022-11-12T00:56:40.204Z,11.63
2022-11-12T00:59:25.545Z,12.35
2022-11-12T01:02:10.981Z,14.40
2022-11-12T01:04:56.465Z,12.32
2022-11-12T01:07:42.629Z,11.88
2022-11-12T01:10:27.778Z,19.08
2022-11-12T01:13:13.124Z,11.02
2022-11-12T01:15:58.474Z,12.18
2022-11-12T01:18:44.318Z,7.07
2022-11-12T01:21:31.799Z,13.32
2022-11-12T01:27:02.540Z,11.15
2022-11-12T01:29:48.028Z,8.38
2022-11-12T01:32:37.505Z,11.13
2022-11-12T01:35:22.848Z,12.50
2022-11-12T01:38:08.485Z,16.48
2022-11-12T01:40:53.869Z,14.05
2022-11-12T01:43:39.415Z,10.68
2022-11-12T01:46:29.791Z,11.18
2022-11-12T01:49:22.823Z,15.18
2022-11-12T01:52:34.778Z,9.15
2022-11-12T01:55:23.838Z,17.52
2022-11-12T01:58:12.767Z,10.32
2022-11-12T02:00:58.651Z,10.93
2022-11-12T02:03:44.033Z,7.40
2022-11-12T02:06:30.320Z,6.85
2022-11-12T02:09:15.930Z,6.72
2022-11-12T02:12:01.275Z,9.88
2022-11-12T02:14:46.804Z,6.03
2022-11-12T02:17:33.337Z,8.77
2022-11-12T02:20:19.112Z,6.15
2022-11-12T02:23:06.087Z,6.82
2022-11-12T02:25:51.251Z,5.40
2022-11-12T02:28:36.660Z,8.95
2022-11-12T02:31:22.210Z,9.32
2022-11-12T02:34:07.767Z,8.00
2022-11-12T02:36:53.148Z,18.25
2022-11-12T02:39:38.700Z,18.98
2022-11-12T02:42:24.106Z,11.60
2022-11-12T02:45:10.591Z,7.40
2022-11-12T02:47:56.111Z,11.52
2022-11-12T02:50:41.463Z,8.82
2022-11-12T02:53:27.064Z,13.63
2022-11-12T02:56:12.584Z,7.20
2022-11-12T02:58:58.108Z,9.48
2022-11-12T03:01:43.429Z,10.40
2022-11-12T03:04:28.807Z,4.72
2022-11-12T03:07:14.289Z,9.48
2022-11-12T03:09:59.499Z,9.95
2022-11-12T03:12:44.784Z,9.20
2022-11-12T03:15:30.677Z,6.53
2022-11-12T03:18:16.204Z,6.28
2022-11-12T03:21:01.723Z,11.52
2022-11-12T03:23:46.820Z,9.60
2022-11-12T03:26:35.777Z,16.48
2022-11-12T03:29:21.457Z,10.02
2022-11-12T03:32:06.873Z,8.75
2022-11-12T03:34:55.405Z,10.73
2022-11-12T03:37:41.371Z,6.38
2022-11-12T03:40:27.213Z,5.47
2022-11-12T03:43:12.312Z,7.75
2022-11-12T03:45:57.889Z,7.45
2022-11-12T03:48:43.158Z,7.25
2022-11-12T03:51:28.766Z,8.68
2022-11-12T03:54:14.032Z,8.68
2022-11-12T03:56:59.529Z,8.38
2022-11-12T03:59:44.907Z,11.27
2022-11-12T04:02:30.349Z,9.85
2022-11-12T04:05:34.587Z,9.02
2022-11-12T04:08:37.523Z,10.45
2022-11-12T04:11:22.712Z,10.27
2022-11-12T04:14:08.163Z,17.58
2022-11-12T04:17:12.107Z,19.88
2022-11-12T04:20:15.998Z,41.50
2022-11-12T04:23:01.416Z,25.23
2022-11-12T04:26:05.337Z,30.15
2022-11-12T04:29:09.309Z,37.45
2022-11-12T06:33:17.169Z,12.95
2022-11-12T06:36:04.754Z,9.48
2022-11-12T06:38:50.284Z,12.52
2022-11-12T06:41:35.693Z,11.98
2022-11-12T06:44:22.536Z,7.80
2022-11-12T06:47:08.561Z,12.75
2022-11-12T06:49:53.889Z,10.65
2022-11-12T06:52:39.195Z,12.35
2022-11-12T06:55:24.443Z,7.53
2022-11-12T06:58:09.836Z,9.98
2022-11-12T07:00:55.266Z,8.45
2022-11-12T07:03:42.243Z,10.32
2022-11-12T07:06:27.544Z,11.38
2022-11-12T07:09:12.968Z,8.82
2022-11-12T07:11:58.357Z,7.65
2022-11-12T07:14:43.765Z,6.18
2022-11-12T07:17:29.267Z,6.35
2022-11-12T07:20:14.988Z,6.80
2022-11-12T07:23:01.445Z,5.93
2022-11-12T07:25:46.449Z,9.45
2022-11-12T07:28:32.746Z,8.65
2022-11-12T07:31:19.957Z,7.18
2022-11-12T07:36:51.823Z,9.50
2022-11-12T07:39:36.994Z,9.45
2022-11-12T07:42:22.287Z,9.88
2022-11-12T07:45:08.225Z,10.43
2022-11-12T07:47:53.522Z,8.93
2022-11-12T07:50:38.959Z,14.32
2022-11-12T07:53:25.922Z,10.10
2022-11-12T07:56:13.033Z,6.45
2022-11-12T07:58:58.226Z,10.32
2022-11-12T08:01:46.542Z,7.35
2022-11-12T08:04:32.058Z,9.45
2022-11-12T08:07:17.841Z,4.25
2022-11-12T08:10:03.199Z,5.97
2022-11-12T08:12:48.695Z,7.97
2022-11-12T08:15:34.459Z,5.78
2022-11-12T08:18:20.042Z,7.72
2022-11-12T08:21:07.783Z,6.38
2022-11-12T08:26:37.981Z,6.47
2022-11-12T08:29:23.554Z,8.27
2022-11-12T08:32:08.654Z,10.40
2022-11-12T08:34:54.213Z,8.85
2022-11-12T08:37:39.506Z,13.32
2022-11-12T08:40:25.294Z,12.88
2022-11-12T08:43:11.132Z,8.88
2022-11-12T08:45:59.676Z,9.27
2022-11-12T08:48:44.819Z,10.93
2022-11-12T08:51:32.558Z,5.50
2022-11-12T08:54:18.240Z,9.85
2022-11-12T08:57:04.454Z,7.80
2022-11-12T08:59:54.046Z,12.40
2022-11-12T09:02:40.700Z,11.15
2022-11-12T09:05:32.104Z,13.10
2022-11-12T09:08:20.976Z,16.33
2022-11-12T09:11:07.675Z,23.20
2022-11-12T09:13:58.727Z,31.77
2022-11-12T09:16:45.266Z,33.17
2022-11-12T09:19:36.513Z,23.00
2022-11-12T09:22:26.121Z,22.65
2022-11-12T09:25:12.561Z,20.35
2022-11-12T09:27:59.107Z,22.38
2022-11-12T09:30:47.382Z,24.40
2022-11-12T09:33:36.776Z,26.25
2022-11-12T09:36:23.651Z,22.15
2022-11-12T09:39:10.452Z,24.55
2022-11-12T09:42:01.914Z,20.15
2022-11-12T09:47:02.000Z,21.77
2022-11-12T09:49:52.410Z,19.02
2022-11-12T09:52:45.572Z,20.85
2022-11-12T09:55:43.610Z,12.23
2022-11-12T09:58:29.585Z,18.48
2022-11-12T10:01:44.357Z,16.65
2022-11-12T10:05:04.886Z,18.85
2022-11-12T10:08:11.437Z,22.58
2022-11-12T10:11:25.769Z,20.45
2022-11-12T10:14:45.271Z,23.00
2022-11-12T10:17:41.108Z,20.45
2022-11-12T10:20:38.786Z,27.92
2022-11-12T10:23:42.122Z,18.50
2022-11-12T10:26:28.593Z,16.60
2022-11-12T10:29:13.931Z,27.08
2022-11-12T10:32:02.558Z,22.75
2022-11-12T10:34:48.197Z,18.70
2022-11-12T10:37:42.411Z,25.55
2022-11-12T10:40:39.818Z,21.80
2022-11-12T10:47:02.755Z,17.27
2022-11-12T10:54:02.114Z,16.08
2022-11-12T10:57:32.067Z,11.40
2022-11-12T11:05:47.950Z,23.63
2022-11-12T11:24:29.706Z,20.80
2022-11-12T11:27:41.634Z,24.83
2022-11-12T11:30:27.151Z,27.23
2022-11-12T11:33:40.915Z,13.05
2022-11-12T11:36:45.312Z,19.00
2022-11-12T11:40:25.754Z,19.83
2022-11-12T11:43:33.617Z,22.65
2022-11-12T11:47:09.117Z,15.40
2022-11-12T11:50:20.549Z,11.50
2022-11-12T11:53:24.073Z,19.27
2022-11-12T11:56:32.104Z,20.05
2022-11-12T12:12:19.450Z,14.52
2022-11-12T12:15:29.603Z,13.55
2022-11-12T12:18:23.961Z,16.83
2022-11-12T12:21:16.417Z,15.23
2022-11-12T12:24:16.356Z,15.80
2022-11-12T12:27:10.638Z,16.17
2022-11-12T12:30:01.138Z,15.05
2022-11-12T12:33:02.525Z,13.93
2022-11-12T12:36:06.422Z,14.80
2022-11-12T12:39:20.932Z,14.00
2022-11-12T12:42:17.260Z,15.07
2022-11-12T12:45:42.846Z,13.38
2022-11-12T12:48:42.713Z,16.75
2022-11-12T12:51:31.153Z,11.95
2022-11-12T12:54:34.870Z,14.43
2022-11-12T12:57:39.567Z,10.23
2022-11-12T13:00:49.814Z,12.23
2022-11-12T13:03:44.231Z,12.77
2022-11-12T13:06:46.090Z,12.25
2022-11-12T13:09:34.148Z,14.95
2022-11-12T13:12:19.437Z,9.73
2022-11-12T13:15:11.473Z,9.98
2022-11-12T13:17:56.778Z,10.38
2022-11-12T13:20:43.013Z,11.70
2022-11-12T13:24:06.883Z,10.68
2022-11-12T13:26:55.983Z,18.42
2022-11-12T13:29:43.193Z,44.80
2022-11-12T13:32:33.825Z,13.25
2022-11-12T13:35:21.258Z,10.70
2022-11-12T13:38:09.298Z,12.25
2022-11-12T13:41:13.004Z,11.30
2022-11-12T13:43:58.391Z,10.05
2022-11-12T13:46:45.360Z,10.82
2022-11-12T13:49:30.769Z,10.75
2022-11-12T13:52:18.616Z,10.57
2022-11-12T13:55:22.266Z,10.40
2022-11-12T13:58:19.783Z,8.60
2022-11-12T14:01:09.439Z,10.35
2022-11-12T14:03:54.792Z,10.15
2022-11-12T14:06:50.778Z,9.90
2022-11-12T14:10:04.226Z,7.90
2022-11-12T14:13:07.398Z,10.73
2022-11-12T14:16:08.494Z,13.23
2022-11-12T14:19:06.263Z,9.88
2022-11-12T14:25:04.274Z,8.90
2022-11-12T14:27:58.317Z,7.82
2022-11-12T14:30:46.276Z,9.60
2022-11-12T14:33:35.086Z,11.38
2022-11-12T14:36:21.248Z,10.63
2022-11-12T14:39:07.199Z,10.55
2022-11-12T14:41:53.214Z,8.85
2022-11-12T14:44:41.794Z,10.45
2022-11-12T14:47:31.042Z,9.02
2022-11-12T14:50:18.169Z,14.27
2022-11-12T14:53:25.055Z,11.30
2022-11-12T14:56:35.517Z,12.45
2022-11-12T14:59:27.357Z,9.13
2022-11-12T15:02:46.883Z,10.63
2022-11-12T15:05:23.582Z,11.43
2022-11-12T15:08:11.640Z,13.37
2022-11-12T15:11:33.604Z,12.18
2022-11-12T15:14:24.391Z,11.93
2022-11-12T15:17:33.171Z,9.68
2022-11-12T15:20:19.910Z,8.77
2022-11-12T15:23:05.247Z,9.95
2022-11-12T15:26:01.113Z,9.32
2022-11-12T15:29:01.087Z,8.75
2022-11-12T15:31:54.116Z,8.38
2022-11-12T15:34:39.524Z,12.20
2022-11-12T15:37:27.530Z,10.63
2022-11-12T15:40:18.686Z,9.70
2022-11-12T15:43:10.727Z,12.32
2022-11-12T15:45:56.701Z,9.75
2022-11-12T15:48:42.117Z,9.68
2022-11-12T15:51:27.554Z,10.85
2022-11-12T15:54:16.172Z,10.35
2022-11-12T15:57:01.699Z,12.75
2022-11-12T16:00:07.443Z,12.18
2022-11-12T16:02:59.353Z,13.93
2022-11-12T16:05:45.273Z,15.32
2022-11-12T16:08:39.405Z,12.93
2022-11-12T16:11:37.125Z,17.75
2022-11-12T16:14:24.939Z,17.80
2022-11-12T16:17:15.661Z,14.60
2022-11-12T16:20:01.217Z,18.83
2022-11-12T16:22:47.010Z,22.08
2022-11-12T16:25:34.969Z,19.80
2022-11-12T16:28:22.981Z,22.90
2022-11-12T16:31:08.633Z,19.65
2022-11-12T16:33:53.956Z,16.50
2022-11-12T16:36:39.955Z,15.35
2022-11-12T16:39:25.645Z,17.40
2022-11-12T16:42:11.271Z,17.83
2022-11-12T16:44:56.385Z,21.00
2022-11-12T16:47:49.908Z,22.67
2022-11-12T16:50:35.144Z,18.42
2022-11-12T16:53:20.641Z,17.33
2022-11-12T16:56:12.054Z,25.42
2022-11-12T16:58:57.783Z,24.38
2022-11-12T17:01:44.107Z,23.23
2022-11-12T17:04:29.293Z,26.73
2022-11-12T17:07:14.759Z,29.48
2022-11-12T17:10:00.300Z,29.33
2022-11-12T17:12:48.838Z,30.20
2022-11-12T17:15:34.544Z,24.40
2022-11-12T17:18:19.977Z,24.58
2022-11-12T17:21:16.916Z,22.77
2022-11-12T17:24:34.964Z,21.25
2022-11-12T17:27:20.393Z,19.63
2022-11-12T17:30:06.641Z,20.70
2022-11-12T17:32:52.404Z,22.25
2022-11-12T17:35:37.706Z,21.50
2022-11-12T17:38:25.275Z,24.00
2022-11-12T17:41:11.661Z,22.90
2022-11-12T17:44:00.950Z,22.17
2022-11-12T17:46:48.319Z,23.33
2022-11-12T17:49:33.825Z,22.92
2022-11-12T17:52:19.142Z,25.05
2022-11-12T17:55:04.945Z,21.60
2022-11-12T17:57:50.581Z,25.55
2022-11-12T18:00:37.687Z,29.20
2022-11-12T18:03:23.314Z,30.63
2022-11-12T18:06:14.406Z,28.80
2022-11-12T18:09:00.973Z,27.42
2022-11-12T18:11:54.115Z,24.73
2022-11-12T18:14:39.282Z,26.88
2022-11-12T18:17:24.881Z,27.95
2022-11-12T18:20:10.391Z,29.42
2022-11-12T18:22:55.845Z,28.95
2022-11-12T18:25:41.253Z,29.98
2022-11-12T18:28:26.762Z,28.80
2022-11-12T18:31:13.048Z,30.40
2022-11-12T18:33:58.442Z,28.95
2022-11-12T18:36:44.153Z,32.63
2022-11-12T18:39:29.496Z,35.65
2022-11-12T18:42:14.962Z,30.77
2022-11-12T18:45:00.634Z,31.92
2022-11-12T18:47:46.097Z,33.92
2022-11-12T18:50:31.865Z,33.08
2022-11-12T18:53:17.717Z,29.20
2022-11-12T18:56:06.855Z,35.58
2022-11-12T18:58:52.496Z,35.55
2022-11-12T19:01:38.348Z,34.55
2022-11-12T19:04:23.856Z,30.55
2022-11-12T19:07:09.619Z,33.28
2022-11-12T19:09:56.995Z,37.10
2022-11-12T19:12:42.669Z,32.13
2022-11-12T19:15:28.119Z,36.28
2022-11-12T19:18:16.728Z,31.70
2022-11-12T19:21:12.865Z,31.02
2022-11-12T19:30:49.704Z,34.13
2022-11-12T19:33:35.505Z,31.80
2022-11-12T19:36:26.663Z,35.08
2022-11-12T19:39:17.435Z,37.83
2022-11-12T19:42:26.377Z,37.97
2022-11-12T19:45:19.576Z,42.03
2022-11-12T19:48:11.348Z,37.92
2022-11-12T19:54:22.655Z,45.03
2022-11-12T20:00:39.775Z,38.58
2022-11-12T20:03:49.950Z,40.42
